createdAt,value
2018-04-14T00:00:58.283Z,43.97
2018-04-14T00:03:24.580Z,44.40
2018-04-14T00:05:51.811Z,44.43
2018-04-14T00:08:18.029Z,44.27
2018-04-14T00:10:44.272Z,44.40
2018-04-14T00:13:10.516Z,41.17
2018-04-14T00:15:36.789Z,42.37
2018-04-14T00:18:03.032Z,41.03
2018-04-14T00:20:29.301Z,43.47
2018-04-14T00:22:55.521Z,42.23
2018-04-14T00:25:21.745Z,42.77
2018-04-14T00:27:47.977Z,42.77
2018-04-14T00:30:14.264Z,43.47
2018-04-14T00:32:41.260Z,43.17
2018-04-14T00:35:07.617Z,43.63
2018-04-14T00:37:33.946Z,44.33
2018-04-14T00:40:00.178Z,42.80
2018-04-14T00:42:26.432Z,43.07
2018-04-14T00:44:53.390Z,43.87
2018-04-14T00:47:20.590Z,42.93
2018-04-14T00:49:46.802Z,44.13
2018-04-14T00:52:13.088Z,44.90
2018-04-14T00:54:40.112Z,44.03
2018-04-14T00:57:06.450Z,42.57
2018-04-14T00:59:33.449Z,43.73
2018-04-14T01:01:59.713Z,44.37
2018-04-14T01:04:25.935Z,44.00
2018-04-14T01:06:52.182Z,43.40
2018-04-14T01:09:19.152Z,43.47
2018-04-14T01:11:45.421Z,43.77
2018-04-14T01:14:11.904Z,43.40
2018-04-14T01:16:38.122Z,43.47
2018-04-14T01:19:05.102Z,43.10
2018-04-14T01:21:31.329Z,43.00
2018-04-14T01:23:57.599Z,42.53
2018-04-14T01:26:23.828Z,44.40
2018-04-14T01:28:50.694Z,43.83
2018-04-14T01:31:17.701Z,45.73
2018-04-14T01:33:43.967Z,45.13
2018-04-14T01:36:10.214Z,49.60
2018-04-14T01:38:37.185Z,44.90
2018-04-14T01:41:03.455Z,45.23
2018-04-14T01:43:29.732Z,43.67
2018-04-14T01:45:55.971Z,43.43
2018-04-14T01:48:22.235Z,43.07
2018-04-14T01:50:48.483Z,43.03
2018-04-14T01:53:14.756Z,44.87
2018-04-14T01:55:40.978Z,46.47
2018-04-14T01:58:07.220Z,45.87
2018-04-14T02:00:33.436Z,44.83
2018-04-14T02:02:59.674Z,47.77
2018-04-14T02:05:25.999Z,46.47
2018-04-14T02:07:52.559Z,43.63
2018-04-14T02:10:18.801Z,44.57
2018-04-14T02:12:45.067Z,43.03
2018-04-14T02:15:11.306Z,42.73
2018-04-14T02:17:37.548Z,43.03
2018-04-14T02:20:03.877Z,43.33
2018-04-14T02:22:30.092Z,42.33
2018-04-14T02:24:56.423Z,41.83
2018-04-14T02:27:22.794Z,41.67
2018-04-14T02:29:49.032Z,40.60
2018-04-14T02:32:15.260Z,41.87
2018-04-14T02:34:41.501Z,41.30
2018-04-14T02:37:07.801Z,43.43
2018-04-14T02:39:34.099Z,42.63
2018-04-14T02:42:00.414Z,43.97
2018-04-14T02:44:27.373Z,43.53
2018-04-14T02:46:53.638Z,42.87
2018-04-14T02:49:19.881Z,46.63
2018-04-14T02:51:46.129Z,43.50
2018-04-14T02:54:13.069Z,45.57
2018-04-14T02:56:40.073Z,42.93
2018-04-14T02:59:06.295Z,47.27
2018-04-14T03:01:32.667Z,44.87
2018-04-14T03:03:59.652Z,46.23
2018-04-14T03:06:25.888Z,46.97
2018-04-14T03:08:52.129Z,45.90
2018-04-14T03:11:18.338Z,46.80
2018-04-14T03:13:44.642Z,46.90
2018-04-14T03:16:10.964Z,45.43
2018-04-14T03:18:37.924Z,45.23
2018-04-14T03:21:04.204Z,48.53
2018-04-14T03:23:30.446Z,48.40
2018-04-14T03:25:56.711Z,50.23
2018-04-14T03:28:23.749Z,51.23
2018-04-14T03:30:50.011Z,51.23
2018-04-14T03:33:16.242Z,49.87
2018-04-14T03:35:42.504Z,49.67
2018-04-14T03:38:09.545Z,47.90
2018-04-14T03:40:35.808Z,49.80
2018-04-14T03:43:02.156Z,46.77
2018-04-14T03:45:28.397Z,49.40
2018-04-14T03:47:54.607Z,51.00
2018-04-14T03:50:20.891Z,55.23
2018-04-14T03:52:47.168Z,54.23
2018-04-14T03:55:13.458Z,55.07
2018-04-14T03:57:39.772Z,55.30
2018-04-14T04:00:06.073Z,54.30
2018-04-14T04:02:32.292Z,55.93
2018-04-14T04:04:58.491Z,55.13
2018-04-14T04:07:25.584Z,54.77
2018-04-14T04:09:51.824Z,56.97
2018-04-14T04:12:18.076Z,59.50
2018-04-14T04:14:44.381Z,60.50
2018-04-14T04:17:10.836Z,56.63
2018-04-14T04:19:49.280Z,59.07
2018-04-14T04:22:28.004Z,61.93
2018-04-14T04:25:06.475Z,60.37
2018-04-14T04:27:32.683Z,59.63
2018-04-14T04:29:58.896Z,62.80
2018-04-14T04:32:25.153Z,63.70
2018-04-14T04:34:52.125Z,67.07
2018-04-14T04:37:19.252Z,64.63
2018-04-14T04:39:45.697Z,66.37
2018-04-14T04:42:13.040Z,67.00
2018-04-14T04:44:40.052Z,68.97
2018-04-14T04:47:06.259Z,66.80
2018-04-14T04:49:33.282Z,64.43
2018-04-14T04:51:59.502Z,68.03
2018-04-14T04:54:26.486Z,69.83
2018-04-14T04:56:52.746Z,71.70
2018-04-14T04:59:19.187Z,70.73
2018-04-14T05:01:45.409Z,66.97
2018-04-14T05:04:11.648Z,71.30
2018-04-14T05:06:37.951Z,65.70
2018-04-14T05:09:04.204Z,69.53
2018-04-14T05:11:31.170Z,67.53
2018-04-14T05:13:57.440Z,69.13
2018-04-14T05:16:24.511Z,69.93
2018-04-14T05:18:50.731Z,69.27
2018-04-14T05:21:16.980Z,71.93
2018-04-14T05:23:43.194Z,74.00
2018-04-14T05:26:09.388Z,69.63
2018-04-14T05:28:35.604Z,72.63
2018-04-14T05:31:01.812Z,69.77
2018-04-14T05:33:28.857Z,71.57
2018-04-14T05:35:55.425Z,71.90
2018-04-14T05:38:23.401Z,70.13
2018-04-14T05:40:49.672Z,67.70
2018-04-14T05:43:15.891Z,67.77
2018-04-14T05:45:42.100Z,69.13
2018-04-14T05:48:08.401Z,69.27
2018-04-14T05:50:34.681Z,66.67
2018-04-14T05:53:01.080Z,67.50
2018-04-14T05:55:27.355Z,65.97
2018-04-14T05:57:53.628Z,65.17
2018-04-14T06:00:19.873Z,67.50
2018-04-14T06:02:46.088Z,65.30
2018-04-14T06:05:12.304Z,62.93
2018-04-14T06:07:38.587Z,68.37
2018-04-14T06:10:04.862Z,67.77
2018-04-14T06:12:31.092Z,65.97
2018-04-14T06:14:57.411Z,67.33
2018-04-14T06:17:24.448Z,65.27
2018-04-14T06:19:51.429Z,64.70
2018-04-14T06:22:17.694Z,60.93
2018-04-14T06:24:43.937Z,62.37
2018-04-14T06:27:10.914Z,61.67
2018-04-14T06:29:37.172Z,61.10
2018-04-14T06:32:03.448Z,57.43
2018-04-14T06:34:30.465Z,54.23
2018-04-14T06:36:57.538Z,53.47
2018-04-14T06:39:24.724Z,54.43
2018-04-14T06:41:51.083Z,52.30
2018-04-14T06:44:17.325Z,49.57
2018-04-14T06:46:43.574Z,50.33
2018-04-14T06:49:10.639Z,50.23
2018-04-14T06:51:37.817Z,48.83
2018-04-14T06:54:04.106Z,49.50
2018-04-14T06:56:30.644Z,46.50
2018-04-14T06:58:57.700Z,47.43
2018-04-14T07:01:24.210Z,49.07
2018-04-14T07:03:50.553Z,49.30
2018-04-14T07:06:17.665Z,49.40
2018-04-14T07:08:43.992Z,51.03
2018-04-14T07:11:10.613Z,50.00
2018-04-14T07:13:37.117Z,49.73
2018-04-14T07:16:03.390Z,52.50
2018-04-14T07:18:29.633Z,51.67
2018-04-14T07:20:55.855Z,49.47
2018-04-14T07:23:22.438Z,50.10
2018-04-14T07:25:49.376Z,48.20
2018-04-14T07:28:16.418Z,50.03
2018-04-14T07:30:43.530Z,49.60
2018-04-14T07:33:10.631Z,50.27
2018-04-14T07:35:37.121Z,50.33
2018-04-14T07:38:03.477Z,47.63
2018-04-14T07:40:30.480Z,50.93
2018-04-14T07:42:56.701Z,49.47
2018-04-14T07:45:23.135Z,46.67
2018-04-14T07:47:49.525Z,45.50
2018-04-14T07:50:16.150Z,46.13
2018-04-14T07:52:42.441Z,48.67
2018-04-14T07:55:08.697Z,47.10
2018-04-14T07:57:35.016Z,44.63
2018-04-14T08:00:01.265Z,38.63
2018-04-14T08:02:28.332Z,37.10
2018-04-14T08:04:54.563Z,36.27
2018-04-14T08:07:20.838Z,37.37
2018-04-14T08:09:47.062Z,36.50
2018-04-14T08:12:13.352Z,33.53
2018-04-14T08:14:39.640Z,35.10
2018-04-14T08:17:05.872Z,34.43
2018-04-14T08:19:32.917Z,33.00
2018-04-14T08:21:59.905Z,32.60
2018-04-14T08:24:26.146Z,31.33
2018-04-14T08:26:52.668Z,33.20
2018-04-14T08:29:18.939Z,34.13
2018-04-14T08:31:45.232Z,35.37
2018-04-14T08:34:11.472Z,34.10
2018-04-14T08:36:37.749Z,33.57
2018-04-14T08:39:04.791Z,34.13
2018-04-14T08:41:31.832Z,35.53
2018-04-14T08:43:58.168Z,34.43
2018-04-14T08:46:25.185Z,36.20
2018-04-14T08:48:58.386Z,35.63
2018-04-14T08:51:24.617Z,35.03
2018-04-14T08:53:52.659Z,38.23
2018-04-14T08:56:18.920Z,38.17
2018-04-14T08:58:45.304Z,38.30
2018-04-14T09:01:11.516Z,39.17
2018-04-14T09:03:37.752Z,45.50
2018-04-14T09:06:04.011Z,45.97
2018-04-14T09:08:30.349Z,38.90
2018-04-14T09:10:56.876Z,37.23
2018-04-14T09:13:23.520Z,38.87
2018-04-14T09:15:49.752Z,38.83
2018-04-14T09:18:15.973Z,39.93
2018-04-14T09:20:42.220Z,41.53
2018-04-14T09:23:08.433Z,41.77
2018-04-14T09:25:34.839Z,42.00
2018-04-14T09:28:02.284Z,42.57
2018-04-14T09:30:28.564Z,40.67
2018-04-14T09:32:54.848Z,40.33
2018-04-14T09:35:21.257Z,38.70
2018-04-14T09:37:47.508Z,36.70
2018-04-14T09:40:13.736Z,37.53
2018-04-14T09:42:39.969Z,39.80
2018-04-14T09:45:06.235Z,38.60
2018-04-14T09:47:32.842Z,38.33
2018-04-14T09:49:59.065Z,40.90
2018-04-14T09:52:25.283Z,37.00
2018-04-14T09:54:51.505Z,39.93
2018-04-14T09:57:17.887Z,39.70
2018-04-14T09:59:44.124Z,37.30
2018-04-14T10:02:10.345Z,37.10
2018-04-14T10:04:36.750Z,36.50
2018-04-14T10:07:03.065Z,36.03
2018-04-14T10:09:29.492Z,36.93
2018-04-14T10:11:55.740Z,40.17
2018-04-14T10:14:21.980Z,39.40
2018-04-14T10:16:55.165Z,40.90
2018-04-14T10:19:21.555Z,42.10
2018-04-14T10:21:47.822Z,40.03
2018-04-14T10:24:14.013Z,41.47
2018-04-14T10:26:40.322Z,37.63
2018-04-14T10:29:06.599Z,41.43
2018-04-14T10:31:32.816Z,40.93
2018-04-14T10:33:59.016Z,40.67
2018-04-14T10:36:25.222Z,39.37
2018-04-14T10:38:51.450Z,40.23
2018-04-14T10:41:18.411Z,37.97
2018-04-14T10:43:45.464Z,38.87
2018-04-14T10:46:11.732Z,38.90
2018-04-14T10:48:38.010Z,39.53
2018-04-14T10:51:04.993Z,37.90
2018-04-14T10:53:31.208Z,39.80
2018-04-14T10:55:57.504Z,39.00
2018-04-14T10:58:24.494Z,38.40
2018-04-14T11:00:50.719Z,38.07
2018-04-14T11:03:16.983Z,40.83
2018-04-14T11:05:43.210Z,42.40
2018-04-14T11:08:09.498Z,41.20
2018-04-14T11:10:35.726Z,38.83
2018-04-14T11:13:02.024Z,37.90
2018-04-14T11:15:29.011Z,38.03
2018-04-14T11:17:55.257Z,37.37
2018-04-14T11:20:21.550Z,38.17
2018-04-14T11:22:47.979Z,37.50
2018-04-14T11:25:15.129Z,39.27
2018-04-14T11:27:41.357Z,37.63
2018-04-14T11:30:07.594Z,35.00
2018-04-14T11:32:33.893Z,35.50
2018-04-14T11:35:00.871Z,39.63
2018-04-14T11:37:27.246Z,34.30
2018-04-14T11:39:53.661Z,40.13
2018-04-14T11:42:19.945Z,37.17
2018-04-14T11:44:46.213Z,34.57
2018-04-14T11:47:19.473Z,33.80
2018-04-14T11:49:45.722Z,36.57
2018-04-14T11:52:11.930Z,38.37
2018-04-14T11:54:38.162Z,39.53
2018-04-14T11:57:04.388Z,36.43
2018-04-14T11:59:30.612Z,38.23
2018-04-14T12:01:56.963Z,38.57
2018-04-14T12:04:23.231Z,38.60
2018-04-14T12:06:49.520Z,40.43
2018-04-14T12:09:15.819Z,36.90
2018-04-14T12:11:42.958Z,36.97
2018-04-14T12:14:09.983Z,35.67
2018-04-14T12:16:36.265Z,34.60
2018-04-14T12:19:02.482Z,32.73
2018-04-14T12:21:28.886Z,36.93
2018-04-14T12:23:55.197Z,40.03
2018-04-14T12:26:21.437Z,36.10
2018-04-14T12:28:47.689Z,34.57
2018-04-14T12:31:14.689Z,38.97
2018-04-14T12:33:40.949Z,42.43
2018-04-14T12:36:07.936Z,35.50
2018-04-14T12:38:34.205Z,36.23
2018-04-14T12:41:00.442Z,38.43
2018-04-14T12:43:26.667Z,39.93
2018-04-14T12:45:53.681Z,50.80
2018-04-14T12:48:19.918Z,39.97
2018-04-14T12:50:46.176Z,37.23
2018-04-14T12:53:12.528Z,38.97
2018-04-14T12:55:39.475Z,37.10
2018-04-14T12:58:05.812Z,36.50
2018-04-14T13:00:32.125Z,38.03
2018-04-14T13:02:58.504Z,35.50
2018-04-14T13:05:24.797Z,34.43
2018-04-14T13:07:51.816Z,38.33
2018-04-14T13:10:18.213Z,39.63
2018-04-14T13:12:44.496Z,37.37
2018-04-14T13:15:11.471Z,38.20
2018-04-14T13:17:37.743Z,35.10
2018-04-14T13:20:04.769Z,37.93
2018-04-14T13:22:31.024Z,38.30
2018-04-14T13:24:57.340Z,37.73
2018-04-14T13:27:24.599Z,37.00
2018-04-14T13:29:51.620Z,35.50
2018-04-14T13:32:18.000Z,36.57
2018-04-14T13:34:44.997Z,35.83
2018-04-14T13:37:11.268Z,34.97
2018-04-14T13:39:38.303Z,34.90
2018-04-14T13:42:05.284Z,36.57
2018-04-14T13:44:31.551Z,33.53
2018-04-14T13:46:57.873Z,35.37
2018-04-14T13:49:24.118Z,34.20
2018-04-14T13:51:50.328Z,31.87
2018-04-14T13:54:16.634Z,32.60
2018-04-14T13:56:43.726Z,33.03
2018-04-14T13:59:10.734Z,30.03
2018-04-14T14:01:36.976Z,31.77
2018-04-14T14:04:03.245Z,30.97
2018-04-14T14:06:30.196Z,31.87
2018-04-14T14:08:56.469Z,34.43
2018-04-14T14:11:22.722Z,35.07
2018-04-14T14:13:49.009Z,32.27
2018-04-14T14:16:15.269Z,32.43
2018-04-14T14:18:41.498Z,33.30
2018-04-14T14:21:07.856Z,33.67
2018-04-14T14:23:34.072Z,34.33
2018-04-14T14:26:00.340Z,35.30
2018-04-14T14:28:26.554Z,35.00
2018-04-14T14:30:53.631Z,31.87
2018-04-14T14:33:19.979Z,31.10
2018-04-14T14:35:46.303Z,31.10
2018-04-14T14:38:12.645Z,32.87
2018-04-14T14:40:38.952Z,32.17
2018-04-14T14:43:05.220Z,32.67
2018-04-14T14:45:31.500Z,29.50
2018-04-14T14:47:57.817Z,31.37
2018-04-14T14:50:28.145Z,33.07
2018-04-14T14:52:54.507Z,33.97
2018-04-14T14:55:20.855Z,32.17
2018-04-14T14:57:47.166Z,33.57
2018-04-14T15:00:13.513Z,33.63
2018-04-14T15:02:40.610Z,34.03
2018-04-14T15:05:07.606Z,31.33
2018-04-14T15:07:33.842Z,30.83
2018-04-14T15:10:00.080Z,30.03
2018-04-14T15:12:26.348Z,29.67
2018-04-14T15:14:52.614Z,28.83
2018-04-14T15:17:18.865Z,28.87
2018-04-14T15:19:45.112Z,31.07
2018-04-14T15:22:12.117Z,29.87
2018-04-14T15:24:38.337Z,29.77
2018-04-14T15:27:04.577Z,29.70
2018-04-14T15:29:30.812Z,29.50
2018-04-14T15:31:57.144Z,31.97
2018-04-14T15:34:24.585Z,28.77
2018-04-14T15:36:50.895Z,30.43
2018-04-14T15:39:18.064Z,26.23
2018-04-14T15:41:44.303Z,26.73
2018-04-14T15:44:10.568Z,26.33
2018-04-14T15:46:36.842Z,28.40
2018-04-14T15:49:03.431Z,28.30
2018-04-14T15:51:30.459Z,27.80
2018-04-14T15:53:57.476Z,27.37
2018-04-14T15:56:23.827Z,30.55
2018-04-14T15:58:50.152Z,28.73
2018-04-14T16:01:16.453Z,29.17
2018-04-14T16:03:44.725Z,28.80
2018-04-14T16:06:10.024Z,27.97
2018-04-14T16:08:36.275Z,27.63
2018-04-14T16:11:02.556Z,28.20
2018-04-14T16:13:29.529Z,28.47
2018-04-14T16:15:55.801Z,27.43
2018-04-14T16:18:22.101Z,30.17
2018-04-14T16:20:48.332Z,28.10
2018-04-14T16:23:14.716Z,27.87
2018-04-14T16:25:41.114Z,28.67
2018-04-14T16:28:07.546Z,27.53
2018-04-14T16:30:33.879Z,26.50
2018-04-14T16:33:00.223Z,26.33
2018-04-14T16:35:27.316Z,25.87
2018-04-14T16:37:53.639Z,27.17
2018-04-14T16:40:19.857Z,26.00
2018-04-14T16:42:46.905Z,26.60
2018-04-14T16:45:13.311Z,25.77
2018-04-14T16:47:39.679Z,26.70
2018-04-14T16:50:06.062Z,26.33
2018-04-14T16:52:32.355Z,26.87
2018-04-14T16:54:58.784Z,27.53
2018-04-14T16:57:26.891Z,27.53
2018-04-14T16:59:53.282Z,26.03
2018-04-14T17:02:20.325Z,25.47
2018-04-14T17:04:53.772Z,25.63
2018-04-14T17:07:20.791Z,27.70
2018-04-14T17:09:47.064Z,26.57
2018-04-14T17:12:14.629Z,26.87
2018-04-14T17:14:41.034Z,25.70
2018-04-14T17:17:07.240Z,26.30
2018-04-14T17:19:33.469Z,27.37
2018-04-14T17:21:59.678Z,28.27
2018-04-14T17:24:25.886Z,26.17
2018-04-14T17:26:52.854Z,27.17
2018-04-14T17:29:19.114Z,27.33
2018-04-14T17:31:46.204Z,28.63
2018-04-14T17:34:13.207Z,28.73
2018-04-14T17:36:39.853Z,28.03
2018-04-14T17:39:06.099Z,28.73
2018-04-14T17:41:32.401Z,28.10
2018-04-14T17:43:58.807Z,27.60
2018-04-14T17:46:25.577Z,30.13
2018-04-14T17:48:51.955Z,29.37
2018-04-14T17:51:18.193Z,29.33
2018-04-14T17:53:44.470Z,28.97
2018-04-14T17:56:10.692Z,28.50
2018-04-14T17:58:36.921Z,28.90
2018-04-14T18:01:03.296Z,28.50
2018-04-14T18:03:29.616Z,27.83
2018-04-14T18:05:56.751Z,27.27
2018-04-14T18:08:23.031Z,27.37
2018-04-14T18:10:49.285Z,27.87
2018-04-14T18:13:15.538Z,28.43
2018-04-14T18:15:42.552Z,27.90
2018-04-14T18:18:08.780Z,26.33
2018-04-14T18:20:40.981Z,25.83
2018-04-14T18:23:14.537Z,26.17
2018-04-14T18:25:46.880Z,25.37
2018-04-14T18:28:20.051Z,26.10
2018-04-14T18:30:46.461Z,26.53
2018-04-14T18:33:12.707Z,25.57
2018-04-14T18:35:38.970Z,24.80
2018-04-14T18:38:05.249Z,25.33
2018-04-14T18:40:31.799Z,25.83
2018-04-14T18:42:58.236Z,25.50
2018-04-14T18:45:24.497Z,25.23
2018-04-14T18:47:50.720Z,25.80
2018-04-14T18:50:17.016Z,26.13
2018-04-14T18:52:43.282Z,26.17
2018-04-14T18:55:09.520Z,25.43
2018-04-14T18:57:37.201Z,25.37
2018-04-14T19:00:03.985Z,26.83
2018-04-14T19:02:31.058Z,26.97
2018-04-14T19:04:57.457Z,26.07
2018-04-14T19:07:24.444Z,26.23
2018-04-14T19:09:50.700Z,26.77
2018-04-14T19:12:18.769Z,27.33
2018-04-14T19:14:44.988Z,27.00
2018-04-14T19:17:11.242Z,26.90
2018-04-14T19:19:37.609Z,26.67
2018-04-14T19:22:04.030Z,27.43
2018-04-14T19:24:30.340Z,26.57
2018-04-14T19:26:56.548Z,26.17
2018-04-14T19:29:22.801Z,27.07
2018-04-14T19:31:49.768Z,26.80
2018-04-14T19:34:16.028Z,26.47
2018-04-14T19:36:42.370Z,27.53
2018-04-14T19:39:08.707Z,25.77
2018-04-14T19:41:35.689Z,26.30
2018-04-14T19:44:01.918Z,26.70
2018-04-14T19:46:28.876Z,28.37
2018-04-14T19:48:55.340Z,26.53
2018-04-14T19:51:28.409Z,27.33
2018-04-14T19:53:54.678Z,27.03
2018-04-14T19:56:20.981Z,27.17
2018-04-14T19:58:47.207Z,27.30
2018-04-14T20:01:13.539Z,26.93
2018-04-14T20:03:40.593Z,25.97
2018-04-14T20:06:06.993Z,25.60
2018-04-14T20:08:34.165Z,27.50
2018-04-14T20:11:00.410Z,27.43
2018-04-14T20:13:26.643Z,27.23
2018-04-14T20:15:52.943Z,27.40
2018-04-14T20:18:19.187Z,27.90
2018-04-14T20:20:45.474Z,28.10
2018-04-14T20:23:11.804Z,29.10
2018-04-14T20:25:38.033Z,28.97
2018-04-14T20:28:04.978Z,29.47
2018-04-14T20:30:31.965Z,29.37
2018-04-14T20:32:58.230Z,29.07
2018-04-14T20:35:25.213Z,30.17
2018-04-14T20:37:51.645Z,30.20
2018-04-14T20:40:17.898Z,29.73
2018-04-14T20:42:44.139Z,31.50
2018-04-14T20:45:10.364Z,30.57
2018-04-14T20:47:36.604Z,30.87
2018-04-14T20:50:02.874Z,31.73
2018-04-14T20:52:29.171Z,32.20
2018-04-14T20:54:57.791Z,34.00
2018-04-14T20:57:24.130Z,32.40
2018-04-14T20:59:50.416Z,35.27
2018-04-14T21:02:16.714Z,34.77
2018-04-14T21:04:42.928Z,33.53
2018-04-14T21:07:09.186Z,35.33
2018-04-14T21:09:35.377Z,35.23
2018-04-14T21:12:01.623Z,35.50
2018-04-14T21:14:27.969Z,35.73
2018-04-14T21:16:55.201Z,34.50
2018-04-14T21:19:21.443Z,35.27
2018-04-14T21:21:47.676Z,36.77
2018-04-14T21:24:13.907Z,36.43
2018-04-14T21:26:40.380Z,34.93
2018-04-14T21:29:06.593Z,35.83
2018-04-14T21:31:33.614Z,36.57
2018-04-14T21:33:59.893Z,35.37
2018-04-14T21:36:26.158Z,39.10
2018-04-14T21:38:52.429Z,34.83
2018-04-14T21:41:19.416Z,38.37
2018-04-14T21:43:45.679Z,39.63
2018-04-14T21:46:12.648Z,40.60
2018-04-14T21:48:39.614Z,42.40
2018-04-14T21:51:07.004Z,42.83
2018-04-14T21:53:33.453Z,43.80
2018-04-14T21:55:59.828Z,42.80
2018-04-14T21:58:26.077Z,42.00
2018-04-14T22:00:52.308Z,43.10
2018-04-14T22:03:18.513Z,43.27
2018-04-14T22:05:44.798Z,44.63
2018-04-14T22:08:11.063Z,44.77
2018-04-14T22:10:38.077Z,44.80
2018-04-14T22:13:05.216Z,43.27
2018-04-14T22:15:31.588Z,46.57
2018-04-14T22:17:57.848Z,45.87
2018-04-14T22:20:24.052Z,47.90
2018-04-14T22:22:51.012Z,47.37
2018-04-14T22:25:17.281Z,46.93
2018-04-14T22:27:43.526Z,46.93
2018-04-14T22:30:10.562Z,47.63
2018-04-14T22:32:36.845Z,46.37
2018-04-14T22:35:03.116Z,47.80
2018-04-14T22:37:29.368Z,46.80
2018-04-14T22:39:56.333Z,47.60
2018-04-14T22:42:22.575Z,46.70
2018-04-14T22:44:48.843Z,48.20
2018-04-14T22:47:15.080Z,46.53
2018-04-14T22:49:41.300Z,48.50
2018-04-14T22:52:07.528Z,48.97
2018-04-14T22:54:34.500Z,48.97
2018-04-14T22:57:01.516Z,50.03
2018-04-14T22:59:27.730Z,49.50
2018-04-14T23:01:55.333Z,47.93
2018-04-14T23:04:22.307Z,47.17
2018-04-14T23:06:48.551Z,47.90
2018-04-14T23:09:14.861Z,45.70
2018-04-14T23:11:41.139Z,46.30
2018-04-14T23:14:07.379Z,45.00
2018-04-14T23:16:33.585Z,45.07
2018-04-14T23:18:59.813Z,38.93
2018-04-14T23:21:26.002Z,33.90
2018-04-14T23:23:52.209Z,33.03
2018-04-14T23:26:19.164Z,35.60
2018-04-14T23:28:46.356Z,34.43
2018-04-14T23:31:12.556Z,33.20
2018-04-14T23:33:38.792Z,32.00
2018-04-14T23:36:05.024Z,31.43
2018-04-14T23:38:31.236Z,30.67
2018-04-14T23:40:57.476Z,27.63
2018-04-14T23:43:23.678Z,29.07
2018-04-14T23:45:49.943Z,25.40
2018-04-14T23:48:16.200Z,24.63
2018-04-14T23:50:42.437Z,22.17
2018-04-14T23:53:09.401Z,21.07
2018-04-14T23:55:36.350Z,21.73
2018-04-14T23:58:03.332Z,21.17
